Bakerton, Kentucky
Current Conditions -  °F | °C
As of 5:56 PM on Sunday 23 Nov 2014 (Local Time) from KEKQ Reporting Station
Scattered Clouds Scattered Clouds  
Wind Chill: 58°   Ceiling: Unl
Heat Index: 58°   Visibility: 10mi
Dew Point: 55°   Wind: 15mph
Humidity: 90%   Direction: 140°SE
Pressure: 29.48"   Gusts: 25mph
Location:  36.87°N, 85.31°W
Report Text: KEKQ 232356Z AUTO 14013G22KT 10SM FEW020 SCT045 14/13 A2948 RMK AO2 56047 60030 T01440127 10144 20122 P0007 PK WND 13026/2337 SLP982
Loading
Personal Weather Stations






























Interactive Weather Map New forecast layout! Learn more

10-Day Weather Forecast

Advertisements
Track Severe Weather on mobile